sensor_id;sensor_type;location;lat;lon;timestamp;temperature;humidity
2465;DHT22;1244;54.326;10.074;2023-05-07T00:02:03;7.90;99.90
2465;DHT22;1244;54.326;10.074;2023-05-07T00:04:29;7.90;99.90
2465;DHT22;1244;54.326;10.074;2023-05-07T00:07:01;7.90;99.90
2465;DHT22;1244;54.326;10.074;2023-05-07T00:09:26;8.00;99.90
2465;DHT22;1244;54.326;10.074;2023-05-07T00:11:52;8.00;99.90
2465;DHT22;1244;54.326;10.074;2023-05-07T00:14:18;8.00;99.90
2465;DHT22;1244;54.326;10.074;2023-05-07T00:16:43;8.00;99.90
2465;DHT22;1244;54.326;10.074;2023-05-07T00:19:09;8.00;99.90
2465;DHT22;1244;54.326;10.074;2023-05-07T00:21:34;8.10;99.90
2465;DHT22;1244;54.326;10.074;2023-05-07T00:24:00;8.00;99.90
2465;DHT22;1244;54.326;10.074;2023-05-07T00:26:25;8.00;99.90
2465;DHT22;1244;54.326;10.074;2023-05-07T00:28:51;8.10;99.90
2465;DHT22;1244;54.326;10.074;2023-05-07T00:31:16;8.00;99.90
2465;DHT22;1244;54.326;10.074;2023-05-07T00:33:42;8.10;99.90
2465;DHT22;1244;54.326;10.074;2023-05-07T00:36:07;8.10;99.90
2465;DHT22;1244;54.326;10.074;2023-05-07T00:38:33;8.10;99.90
2465;DHT22;1244;54.326;10.074;2023-05-07T00:43:24;8.00;99.90
2465;DHT22;1244;54.326;10.074;2023-05-07T00:45:50;8.10;99.90
2465;DHT22;1244;54.326;10.074;2023-05-07T00:48:16;8.10;99.90
2465;DHT22;1244;54.326;10.074;2023-05-07T00:50:42;8.10;99.90
2465;DHT22;1244;54.326;10.074;2023-05-07T00:53:08;8.10;99.90
2465;DHT22;1244;54.326;10.074;2023-05-07T00:55:35;8.20;99.90
2465;DHT22;1244;54.326;10.074;2023-05-07T00:58:01;8.10;99.90
2465;DHT22;1244;54.326;10.074;2023-05-07T01:00:26;8.10;99.90
2465;DHT22;1244;54.326;10.074;2023-05-07T01:02:52;8.10;99.90
2465;DHT22;1244;54.326;10.074;2023-05-07T01:05:19;8.20;99.90
2465;DHT22;1244;54.326;10.074;2023-05-07T01:07:45;8.20;99.90
2465;DHT22;1244;54.326;10.074;2023-05-07T01:10:12;8.20;99.90
2465;DHT22;1244;54.326;10.074;2023-05-07T01:12:39;8.20;99.90
2465;DHT22;1244;54.326;10.074;2023-05-07T01:15:06;8.20;99.90
2465;DHT22;1244;54.326;10.074;2023-05-07T01:17:37;8.20;99.90
2465;DHT22;1244;54.326;10.074;2023-05-07T01:20:04;8.20;99.90
2465;DHT22;1244;54.326;10.074;2023-05-07T01:22:34;8.20;99.90
2465;DHT22;1244;54.326;10.074;2023-05-07T01:25:02;8.20;99.90
2465;DHT22;1244;54.326;10.074;2023-05-07T01:27:28;8.20;99.90
2465;DHT22;1244;54.326;10.074;2023-05-07T01:29:54;8.20;99.90
2465;DHT22;1244;54.326;10.074;2023-05-07T01:32:29;8.30;99.90
2465;DHT22;1244;54.326;10.074;2023-05-07T01:34:58;8.20;99.90
2465;DHT22;1244;54.326;10.074;2023-05-07T01:37:25;8.30;99.90
2465;DHT22;1244;54.326;10.074;2023-05-07T01:39:51;8.30;99.90
2465;DHT22;1244;54.326;10.074;2023-05-07T01:42:17;8.20;99.90
2465;DHT22;1244;54.326;10.074;2023-05-07T01:44:43;8.20;99.90
2465;DHT22;1244;54.326;10.074;2023-05-07T01:47:08;8.30;99.90
2465;DHT22;1244;54.326;10.074;2023-05-07T01:49:34;8.20;99.90
2465;DHT22;1244;54.326;10.074;2023-05-07T01:52:00;8.30;99.90
2465;DHT22;1244;54.326;10.074;2023-05-07T01:54:26;8.20;99.90
2465;DHT22;1244;54.326;10.074;2023-05-07T01:56:53;8.20;99.90
2465;DHT22;1244;54.326;10.074;2023-05-07T01:59:19;8.30;99.90
2465;DHT22;1244;54.326;10.074;2023-05-07T02:01:44;8.20;99.90
2465;DHT22;1244;54.326;10.074;2023-05-07T02:04:10;8.20;99.90
2465;DHT22;1244;54.326;10.074;2023-05-07T02:06:35;8.20;99.90
2465;DHT22;1244;54.326;10.074;2023-05-07T02:09:01;8.30;99.90
2465;DHT22;1244;54.326;10.074;2023-05-07T02:11:26;8.20;99.90
2465;DHT22;1244;54.326;10.074;2023-05-07T02:13:52;8.20;99.90
2465;DHT22;1244;54.326;10.074;2023-05-07T02:16:18;8.20;99.90
2465;DHT22;1244;54.326;10.074;2023-05-07T02:18:45;8.20;99.90
2465;DHT22;1244;54.326;10.074;2023-05-07T02:21:10;8.20;99.90
2465;DHT22;1244;54.326;10.074;2023-05-07T02:23:36;8.20;99.90
2465;DHT22;1244;54.326;10.074;2023-05-07T02:26:01;8.20;99.90
2465;DHT22;1244;54.326;10.074;2023-05-07T02:28:27;8.20;99.90
2465;DHT22;1244;54.326;10.074;2023-05-07T02:30:52;8.20;99.90
2465;DHT22;1244;54.326;10.074;2023-05-07T02:33:18;8.20;99.90
2465;DHT22;1244;54.326;10.074;2023-05-07T02:35:43;8.20;99.90
2465;DHT22;1244;54.326;10.074;2023-05-07T02:38:09;8.20;99.90
2465;DHT22;1244;54.326;10.074;2023-05-07T02:40:36;8.20;99.90
2465;DHT22;1244;54.326;10.074;2023-05-07T02:43:04;8.30;99.90
2465;DHT22;1244;54.326;10.074;2023-05-07T02:45:31;8.20;99.90
2465;DHT22;1244;54.326;10.074;2023-05-07T02:47:57;8.20;99.90
2465;DHT22;1244;54.326;10.074;2023-05-07T02:50:22;8.30;99.90
2465;DHT22;1244;54.326;10.074;2023-05-07T02:52:48;8.30;99.90
2465;DHT22;1244;54.326;10.074;2023-05-07T02:55:13;8.30;99.90
2465;DHT22;1244;54.326;10.074;2023-05-07T02:57:39;8.30;99.90
2465;DHT22;1244;54.326;10.074;2023-05-07T03:00:15;8.30;99.90
2465;DHT22;1244;54.326;10.074;2023-05-07T03:02:41;8.20;99.90
2465;DHT22;1244;54.326;10.074;2023-05-07T03:05:07;8.20;99.90
2465;DHT22;1244;54.326;10.074;2023-05-07T03:07:34;8.30;99.90
2465;DHT22;1244;54.326;10.074;2023-05-07T03:10:00;8.30;99.90
2465;DHT22;1244;54.326;10.074;2023-05-07T03:12:25;8.30;99.90
2465;DHT22;1244;54.326;10.074;2023-05-07T03:14:51;8.30;99.90
2465;DHT22;1244;54.326;10.074;2023-05-07T03:17:16;8.30;99.90
2465;DHT22;1244;54.326;10.074;2023-05-07T03:19:42;8.30;99.90
2465;DHT22;1244;54.326;10.074;2023-05-07T03:22:07;8.30;99.90
2465;DHT22;1244;54.326;10.074;2023-05-07T03:24:33;8.30;99.90
2465;DHT22;1244;54.326;10.074;2023-05-07T03:26:58;8.30;99.90
2465;DHT22;1244;54.326;10.074;2023-05-07T03:29:24;8.30;99.90
2465;DHT22;1244;54.326;10.074;2023-05-07T03:31:49;8.40;99.90
2465;DHT22;1244;54.326;10.074;2023-05-07T03:34:15;8.30;99.90
2465;DHT22;1244;54.326;10.074;2023-05-07T03:36:42;8.30;99.90
2465;DHT22;1244;54.326;10.074;2023-05-07T03:39:07;8.30;99.90
2465;DHT22;1244;54.326;10.074;2023-05-07T03:41:33;8.40;99.90
2465;DHT22;1244;54.326;10.074;2023-05-07T03:43:58;8.30;99.90
2465;DHT22;1244;54.326;10.074;2023-05-07T03:46:24;8.30;99.90
2465;DHT22;1244;54.326;10.074;2023-05-07T03:48:51;8.30;99.90
2465;DHT22;1244;54.326;10.074;2023-05-07T03:51:17;8.30;99.90
2465;DHT22;1244;54.326;10.074;2023-05-07T03:53:42;8.30;99.90
2465;DHT22;1244;54.326;10.074;2023-05-07T03:56:08;8.40;99.90
2465;DHT22;1244;54.326;10.074;2023-05-07T03:58:33;8.40;99.90
2465;DHT22;1244;54.326;10.074;2023-05-07T04:00:59;8.30;99.90
2465;DHT22;1244;54.326;10.074;2023-05-07T04:03:24;8.30;99.90
2465;DHT22;1244;54.326;10.074;2023-05-07T04:05:50;8.40;99.90
2465;DHT22;1244;54.326;10.074;2023-05-07T04:08:15;8.40;99.90
2465;DHT22;1244;54.326;10.074;2023-05-07T04:10:41;8.30;99.90
2465;DHT22;1244;54.326;10.074;2023-05-07T04:13:06;8.40;99.90
2465;DHT22;1244;54.326;10.074;2023-05-07T04:15:32;8.40;99.90
2465;DHT22;1244;54.326;10.074;2023-05-07T04:17:57;8.40;99.90
2465;DHT22;1244;54.326;10.074;2023-05-07T04:20:23;8.40;99.90
2465;DHT22;1244;54.326;10.074;2023-05-07T04:22:48;8.40;99.90
2465;DHT22;1244;54.326;10.074;2023-05-07T04:25:16;8.50;99.90
2465;DHT22;1244;54.326;10.074;2023-05-07T04:27:41;8.40;99.90
2465;DHT22;1244;54.326;10.074;2023-05-07T04:30:07;8.40;99.90
2465;DHT22;1244;54.326;10.074;2023-05-07T04:32:33;8.50;99.90
2465;DHT22;1244;54.326;10.074;2023-05-07T04:34:58;8.50;99.90
2465;DHT22;1244;54.326;10.074;2023-05-07T04:37:25;8.50;99.90
2465;DHT22;1244;54.326;10.074;2023-05-07T04:39:51;8.50;99.90
2465;DHT22;1244;54.326;10.074;2023-05-07T04:42:17;8.50;99.90
2465;DHT22;1244;54.326;10.074;2023-05-07T04:44:44;8.60;99.90
2465;DHT22;1244;54.326;10.074;2023-05-07T04:47:09;8.60;99.90
2465;DHT22;1244;54.326;10.074;2023-05-07T04:49:35;8.60;99.90
2465;DHT22;1244;54.326;10.074;2023-05-07T04:52:00;8.60;99.90
2465;DHT22;1244;54.326;10.074;2023-05-07T04:54:26;8.60;99.90
2465;DHT22;1244;54.326;10.074;2023-05-07T04:56:52;8.60;99.90
2465;DHT22;1244;54.326;10.074;2023-05-07T04:59:17;8.60;99.90
2465;DHT22;1244;54.326;10.074;2023-05-07T05:01:43;8.60;99.90
2465;DHT22;1244;54.326;10.074;2023-05-07T05:04:08;8.60;99.90
2465;DHT22;1244;54.326;10.074;2023-05-07T05:06:34;8.60;99.90
2465;DHT22;1244;54.326;10.074;2023-05-07T05:08:59;8.60;99.90
2465;DHT22;1244;54.326;10.074;2023-05-07T05:11:25;8.70;99.90
2465;DHT22;1244;54.326;10.074;2023-05-07T05:13:50;8.50;99.90
2465;DHT22;1244;54.326;10.074;2023-05-07T05:16:16;8.60;99.90
2465;DHT22;1244;54.326;10.074;2023-05-07T05:18:42;8.60;99.90
2465;DHT22;1244;54.326;10.074;2023-05-07T05:21:07;8.60;99.90
2465;DHT22;1244;54.326;10.074;2023-05-07T05:23:33;8.60;99.90
2465;DHT22;1244;54.326;10.074;2023-05-07T05:25:59;8.60;99.90
2465;DHT22;1244;54.326;10.074;2023-05-07T05:28:24;8.60;99.90
2465;DHT22;1244;54.326;10.074;2023-05-07T05:30:50;8.70;99.90
2465;DHT22;1244;54.326;10.074;2023-05-07T05:33:15;8.70;99.90
2465;DHT22;1244;54.326;10.074;2023-05-07T05:35:41;8.70;99.90
2465;DHT22;1244;54.326;10.074;2023-05-07T05:38:07;8.70;99.90
2465;DHT22;1244;54.326;10.074;2023-05-07T05:40:33;8.70;99.90
2465;DHT22;1244;54.326;10.074;2023-05-07T05:42:59;8.70;99.90
2465;DHT22;1244;54.326;10.074;2023-05-07T05:45:24;8.80;99.90
2465;DHT22;1244;54.326;10.074;2023-05-07T05:47:50;8.70;99.90
2465;DHT22;1244;54.326;10.074;2023-05-07T05:50:17;8.80;99.90
2465;DHT22;1244;54.326;10.074;2023-05-07T05:52:42;8.80;99.90
2465;DHT22;1244;54.326;10.074;2023-05-07T05:55:08;8.80;99.90
2465;DHT22;1244;54.326;10.074;2023-05-07T05:57:34;8.90;99.90
2465;DHT22;1244;54.326;10.074;2023-05-07T06:00:01;8.90;99.90
2465;DHT22;1244;54.326;10.074;2023-05-07T06:02:26;9.00;99.90
2465;DHT22;1244;54.326;10.074;2023-05-07T06:04:52;9.00;99.90
2465;DHT22;1244;54.326;10.074;2023-05-07T06:07:18;9.00;99.90
2465;DHT22;1244;54.326;10.074;2023-05-07T06:09:43;9.00;99.90
2465;DHT22;1244;54.326;10.074;2023-05-07T06:12:09;9.10;99.90
2465;DHT22;1244;54.326;10.074;2023-05-07T06:14:34;9.20;99.90
2465;DHT22;1244;54.326;10.074;2023-05-07T06:17:00;9.10;99.90
2465;DHT22;1244;54.326;10.074;2023-05-07T06:19:25;9.20;99.90
2465;DHT22;1244;54.326;10.074;2023-05-07T06:21:53;9.20;99.90
2465;DHT22;1244;54.326;10.074;2023-05-07T06:24:19;9.30;99.90
2465;DHT22;1244;54.326;10.074;2023-05-07T06:26:44;9.30;99.90
2465;DHT22;1244;54.326;10.074;2023-05-07T06:29:10;9.40;99.90
2465;DHT22;1244;54.326;10.074;2023-05-07T06:31:35;9.40;99.90
2465;DHT22;1244;54.326;10.074;2023-05-07T06:34:01;9.40;99.90
2465;DHT22;1244;54.326;10.074;2023-05-07T06:36:27;9.30;99.90
2465;DHT22;1244;54.326;10.074;2023-05-07T06:38:53;9.40;99.90
2465;DHT22;1244;54.326;10.074;2023-05-07T06:41:18;9.50;99.90
2465;DHT22;1244;54.326;10.074;2023-05-07T06:43:45;9.60;99.90
2465;DHT22;1244;54.326;10.074;2023-05-07T06:46:11;9.60;99.90
2465;DHT22;1244;54.326;10.074;2023-05-07T06:48:36;9.70;99.90
2465;DHT22;1244;54.326;10.074;2023-05-07T06:51:02;9.60;99.90
2465;DHT22;1244;54.326;10.074;2023-05-07T06:53:27;9.60;99.90
2465;DHT22;1244;54.326;10.074;2023-05-07T06:55:54;9.50;99.90
2465;DHT22;1244;54.326;10.074;2023-05-07T06:58:20;9.50;99.90
2465;DHT22;1244;54.326;10.074;2023-05-07T07:00:45;9.50;99.90
2465;DHT22;1244;54.326;10.074;2023-05-07T07:03:11;9.60;99.90
2465;DHT22;1244;54.326;10.074;2023-05-07T07:05:36;9.50;99.90
2465;DHT22;1244;54.326;10.074;2023-05-07T07:08:02;9.60;99.90
2465;DHT22;1244;54.326;10.074;2023-05-07T07:10:27;9.60;99.90
2465;DHT22;1244;54.326;10.074;2023-05-07T07:12:53;9.70;99.90
2465;DHT22;1244;54.326;10.074;2023-05-07T07:15:19;9.70;99.90
2465;DHT22;1244;54.326;10.074;2023-05-07T07:17:46;9.80;99.90
2465;DHT22;1244;54.326;10.074;2023-05-07T07:20:11;9.70;99.90
2465;DHT22;1244;54.326;10.074;2023-05-07T07:22:37;9.90;99.90
2465;DHT22;1244;54.326;10.074;2023-05-07T07:25:02;9.90;99.90
2465;DHT22;1244;54.326;10.074;2023-05-07T07:27:28;10.00;99.90
2465;DHT22;1244;54.326;10.074;2023-05-07T07:29:53;10.10;99.90
2465;DHT22;1244;54.326;10.074;2023-05-07T07:32:19;10.10;99.90
2465;DHT22;1244;54.326;10.074;2023-05-07T07:34:44;10.10;99.90
2465;DHT22;1244;54.326;10.074;2023-05-07T07:37:10;10.30;99.90
2465;DHT22;1244;54.326;10.074;2023-05-07T07:39:35;10.40;99.90
2465;DHT22;1244;54.326;10.074;2023-05-07T07:42:03;10.40;99.90
2465;DHT22;1244;54.326;10.074;2023-05-07T07:44:28;10.60;99.90
2465;DHT22;1244;54.326;10.074;2023-05-07T07:46:54;10.60;99.90
2465;DHT22;1244;54.326;10.074;2023-05-07T07:49:19;10.50;99.90
2465;DHT22;1244;54.326;10.074;2023-05-07T07:51:45;10.50;99.90
2465;DHT22;1244;54.326;10.074;2023-05-07T07:54:10;10.50;99.90
2465;DHT22;1244;54.326;10.074;2023-05-07T07:56:36;10.50;99.90
2465;DHT22;1244;54.326;10.074;2023-05-07T07:59:02;10.50;99.90
2465;DHT22;1244;54.326;10.074;2023-05-07T08:01:29;10.80;99.90
2465;DHT22;1244;54.326;10.074;2023-05-07T08:03:55;11.00;99.90
2465;DHT22;1244;54.326;10.074;2023-05-07T08:06:21;11.00;99.90
2465;DHT22;1244;54.326;10.074;2023-05-07T08:08:46;11.40;99.90
2465;DHT22;1244;54.326;10.074;2023-05-07T08:11:12;11.60;99.90
2465;DHT22;1244;54.326;10.074;2023-05-07T08:13:38;11.50;99.90
2465;DHT22;1244;54.326;10.074;2023-05-07T08:16:04;11.40;99.90
2465;DHT22;1244;54.326;10.074;2023-05-07T08:18:30;11.70;99.90
2465;DHT22;1244;54.326;10.074;2023-05-07T08:20:55;12.40;99.90
2465;DHT22;1244;54.326;10.074;2023-05-07T08:23:21;12.60;99.90
2465;DHT22;1244;54.326;10.074;2023-05-07T08:25:47;13.10;99.90
2465;DHT22;1244;54.326;10.074;2023-05-07T08:28:13;12.80;99.90
2465;DHT22;1244;54.326;10.074;2023-05-07T08:30:38;12.60;99.90
2465;DHT22;1244;54.326;10.074;2023-05-07T08:33:04;12.70;99.90
2465;DHT22;1244;54.326;10.074;2023-05-07T08:35:29;12.20;99.90
2465;DHT22;1244;54.326;10.074;2023-05-07T08:37:55;12.20;99.90
2465;DHT22;1244;54.326;10.074;2023-05-07T08:40:25;12.30;99.90
2465;DHT22;1244;54.326;10.074;2023-05-07T08:42:52;12.20;99.90
2465;DHT22;1244;54.326;10.074;2023-05-07T08:45:19;12.20;99.90
2465;DHT22;1244;54.326;10.074;2023-05-07T08:47:47;11.90;99.90
2465;DHT22;1244;54.326;10.074;2023-05-07T08:50:15;11.80;99.90
2465;DHT22;1244;54.326;10.074;2023-05-07T08:52:41;12.20;99.90
2465;DHT22;1244;54.326;10.074;2023-05-07T08:55:08;12.20;99.90
2465;DHT22;1244;54.326;10.074;2023-05-07T08:57:34;12.10;99.90
2465;DHT22;1244;54.326;10.074;2023-05-07T09:00:00;12.20;99.90
2465;DHT22;1244;54.326;10.074;2023-05-07T09:02:25;12.10;99.90
2465;DHT22;1244;54.326;10.074;2023-05-07T09:04:51;12.10;99.90
2465;DHT22;1244;54.326;10.074;2023-05-07T09:07:16;12.20;99.90
2465;DHT22;1244;54.326;10.074;2023-05-07T09:09:44;12.20;99.90
2465;DHT22;1244;54.326;10.074;2023-05-07T09:12:09;12.10;99.90
2465;DHT22;1244;54.326;10.074;2023-05-07T09:14:35;12.30;99.90
2465;DHT22;1244;54.326;10.074;2023-05-07T09:17:01;12.20;99.90
2465;DHT22;1244;54.326;10.074;2023-05-07T09:19:27;12.60;99.90
2465;DHT22;1244;54.326;10.074;2023-05-07T09:22:03;12.10;99.90
2465;DHT22;1244;54.326;10.074;2023-05-07T09:24:30;12.30;99.90
2465;DHT22;1244;54.326;10.074;2023-05-07T09:27:03;12.20;99.90
2465;DHT22;1244;54.326;10.074;2023-05-07T09:29:28;12.30;99.90
2465;DHT22;1244;54.326;10.074;2023-05-07T09:31:55;12.40;99.90
2465;DHT22;1244;54.326;10.074;2023-05-07T09:34:21;12.20;99.90
2465;DHT22;1244;54.326;10.074;2023-05-07T09:36:47;12.30;99.90
2465;DHT22;1244;54.326;10.074;2023-05-07T09:39:13;12.40;99.90
2465;DHT22;1244;54.326;10.074;2023-05-07T09:41:48;12.40;99.90
2465;DHT22;1244;54.326;10.074;2023-05-07T09:44:15;12.50;99.90
2465;DHT22;1244;54.326;10.074;2023-05-07T09:46:42;12.60;99.90
2465;DHT22;1244;54.326;10.074;2023-05-07T09:49:12;12.60;99.90
2465;DHT22;1244;54.326;10.074;2023-05-07T09:51:48;12.70;99.90
2465;DHT22;1244;54.326;10.074;2023-05-07T09:54:16;12.90;99.90
2465;DHT22;1244;54.326;10.074;2023-05-07T09:56:43;12.90;99.90
2465;DHT22;1244;54.326;10.074;2023-05-07T09:59:13;12.80;99.90
2465;DHT22;1244;54.326;10.074;2023-05-07T10:01:41;13.50;99.90
2465;DHT22;1244;54.326;10.074;2023-05-07T10:04:07;13.80;99.90
2465;DHT22;1244;54.326;10.074;2023-05-07T10:06:37;13.80;99.90
2465;DHT22;1244;54.326;10.074;2023-05-07T10:09:06;14.30;99.90
2465;DHT22;1244;54.326;10.074;2023-05-07T10:11:33;14.20;99.90
2465;DHT22;1244;54.326;10.074;2023-05-07T10:14:04;14.50;99.90
2465;DHT22;1244;54.326;10.074;2023-05-07T10:16:36;14.90;99.90
2465;DHT22;1244;54.326;10.074;2023-05-07T10:19:06;14.80;99.90
2465;DHT22;1244;54.326;10.074;2023-05-07T10:21:37;15.20;99.90
2465;DHT22;1244;54.326;10.074;2023-05-07T10:24:16;16.30;99.90
2465;DHT22;1244;54.326;10.074;2023-05-07T10:26:48;15.30;99.90
2465;DHT22;1244;54.326;10.074;2023-05-07T10:29:21;15.50;99.90
2465;DHT22;1244;54.326;10.074;2023-05-07T10:34:39;16.20;99.90
2465;DHT22;1244;54.326;10.074;2023-05-07T10:37:06;16.20;99.90
2465;DHT22;1244;54.326;10.074;2023-05-07T10:39:32;16.60;99.90
2465;DHT22;1244;54.326;10.074;2023-05-07T10:42:07;16.10;99.90
2465;DHT22;1244;54.326;10.074;2023-05-07T10:44:33;16.10;99.90
2465;DHT22;1244;54.326;10.074;2023-05-07T10:47:07;15.70;99.90
2465;DHT22;1244;54.326;10.074;2023-05-07T10:49:35;15.80;99.90
2465;DHT22;1244;54.326;10.074;2023-05-07T10:52:15;16.40;99.90
2465;DHT22;1244;54.326;10.074;2023-05-07T10:54:42;16.30;99.90
2465;DHT22;1244;54.326;10.074;2023-05-07T10:57:37;15.80;99.90
2465;DHT22;1244;54.326;10.074;2023-05-07T11:05:30;16.50;99.90
2465;DHT22;1244;54.326;10.074;2023-05-07T11:07:58;16.60;99.90
2465;DHT22;1244;54.326;10.074;2023-05-07T11:13:40;17.00;99.90
2465;DHT22;1244;54.326;10.074;2023-05-07T11:16:04;17.20;99.90
2465;DHT22;1244;54.326;10.074;2023-05-07T11:18:50;16.50;99.90
2465;DHT22;1244;54.326;10.074;2023-05-07T11:21:35;16.00;99.90
2465;DHT22;1244;54.326;10.074;2023-05-07T11:24:05;15.70;99.90
2465;DHT22;1244;54.326;10.074;2023-05-07T11:26:45;16.30;99.90
2465;DHT22;1244;54.326;10.074;2023-05-07T11:29:18;17.10;99.90
2465;DHT22;1244;54.326;10.074;2023-05-07T11:31:48;17.90;99.90
2465;DHT22;1244;54.326;10.074;2023-05-07T11:34:15;17.30;99.90
2465;DHT22;1244;54.326;10.074;2023-05-07T11:36:46;16.60;99.90
2465;DHT22;1244;54.326;10.074;2023-05-07T11:39:25;16.50;99.90
2465;DHT22;1244;54.326;10.074;2023-05-07T11:41:51;17.00;99.90
2465;DHT22;1244;54.326;10.074;2023-05-07T11:44:16;17.20;99.90
2465;DHT22;1244;54.326;10.074;2023-05-07T11:46:45;17.40;99.90
2465;DHT22;1244;54.326;10.074;2023-05-07T11:49:11;17.10;99.90
2465;DHT22;1244;54.326;10.074;2023-05-07T11:51:36;16.70;99.90
2465;DHT22;1244;54.326;10.074;2023-05-07T11:54:04;16.40;99.90
2465;DHT22;1244;54.326;10.074;2023-05-07T11:56:34;16.60;99.90
2465;DHT22;1244;54.326;10.074;2023-05-07T11:59:00;16.00;99.90
2465;DHT22;1244;54.326;10.074;2023-05-07T12:01:26;16.30;99.90
2465;DHT22;1244;54.326;10.074;2023-05-07T12:03:51;16.80;99.90
2465;DHT22;1244;54.326;10.074;2023-05-07T12:06:18;16.80;99.90
2465;DHT22;1244;54.326;10.074;2023-05-07T12:08:45;16.90;99.90
2465;DHT22;1244;54.326;10.074;2023-05-07T12:11:18;17.00;99.90
2465;DHT22;1244;54.326;10.074;2023-05-07T12:13:47;17.00;99.90
2465;DHT22;1244;54.326;10.074;2023-05-07T12:16:13;17.50;99.90
2465;DHT22;1244;54.326;10.074;2023-05-07T12:18:39;17.50;99.90
2465;DHT22;1244;54.326;10.074;2023-05-07T12:21:06;18.10;99.90
2465;DHT22;1244;54.326;10.074;2023-05-07T12:23:33;18.90;99.90
2465;DHT22;1244;54.326;10.074;2023-05-07T12:25:59;19.20;99.90
2465;DHT22;1244;54.326;10.074;2023-05-07T12:28:25;18.40;99.90
2465;DHT22;1244;54.326;10.074;2023-05-07T12:30:51;18.10;99.90
2465;DHT22;1244;54.326;10.074;2023-05-07T12:33:22;17.70;99.90
2465;DHT22;1244;54.326;10.074;2023-05-07T12:35:48;17.80;99.90
2465;DHT22;1244;54.326;10.074;2023-05-07T12:38:15;17.80;99.90
2465;DHT22;1244;54.326;10.074;2023-05-07T12:40:44;17.20;99.90
2465;DHT22;1244;54.326;10.074;2023-05-07T12:43:40;17.50;99.90
2465;DHT22;1244;54.326;10.074;2023-05-07T12:46:09;18.00;99.90
2465;DHT22;1244;54.326;10.074;2023-05-07T12:48:37;17.90;99.90
2465;DHT22;1244;54.326;10.074;2023-05-07T12:51:03;18.90;99.90
2465;DHT22;1244;54.326;10.074;2023-05-07T12:53:29;18.90;99.90
2465;DHT22;1244;54.326;10.074;2023-05-07T12:55:57;18.60;99.90
2465;DHT22;1244;54.326;10.074;2023-05-07T12:58:31;17.80;99.90
2465;DHT22;1244;54.326;10.074;2023-05-07T13:00:59;18.40;99.90
2465;DHT22;1244;54.326;10.074;2023-05-07T13:03:30;19.00;99.90
2465;DHT22;1244;54.326;10.074;2023-05-07T13:06:01;18.90;99.90
2465;DHT22;1244;54.326;10.074;2023-05-07T13:08:34;18.60;99.90
2465;DHT22;1244;54.326;10.074;2023-05-07T13:11:02;18.70;99.90
2465;DHT22;1244;54.326;10.074;2023-05-07T13:13:31;18.60;99.90
2465;DHT22;1244;54.326;10.074;2023-05-07T13:15:57;18.10;99.90
2465;DHT22;1244;54.326;10.074;2023-05-07T13:18:23;17.50;99.90
2465;DHT22;1244;54.326;10.074;2023-05-07T13:20:49;17.30;99.90
2465;DHT22;1244;54.326;10.074;2023-05-07T13:23:15;17.50;99.90
2465;DHT22;1244;54.326;10.074;2023-05-07T13:25:40;17.50;99.90
2465;DHT22;1244;54.326;10.074;2023-05-07T13:28:06;17.10;99.90
2465;DHT22;1244;54.326;10.074;2023-05-07T13:30:31;17.00;99.90
2465;DHT22;1244;54.326;10.074;2023-05-07T13:32:57;17.20;99.90
2465;DHT22;1244;54.326;10.074;2023-05-07T13:35:22;17.50;99.90
2465;DHT22;1244;54.326;10.074;2023-05-07T13:37:48;17.50;99.90
2465;DHT22;1244;54.326;10.074;2023-05-07T13:40:14;17.30;99.90
2465;DHT22;1244;54.326;10.074;2023-05-07T13:42:40;17.30;99.90
2465;DHT22;1244;54.326;10.074;2023-05-07T13:45:07;17.00;99.90
2465;DHT22;1244;54.326;10.074;2023-05-07T13:47:32;17.20;99.90
2465;DHT22;1244;54.326;10.074;2023-05-07T13:49:58;17.60;99.90
2465;DHT22;1244;54.326;10.074;2023-05-07T13:52:23;18.20;99.90
2465;DHT22;1244;54.326;10.074;2023-05-07T13:54:49;18.10;99.90
2465;DHT22;1244;54.326;10.074;2023-05-07T13:57:14;17.90;99.90
2465;DHT22;1244;54.326;10.074;2023-05-07T13:59:40;18.00;99.90
2465;DHT22;1244;54.326;10.074;2023-05-07T14:02:06;18.30;99.90
2465;DHT22;1244;54.326;10.074;2023-05-07T14:04:31;18.20;99.90
2465;DHT22;1244;54.326;10.074;2023-05-07T14:06:57;18.10;99.90
2465;DHT22;1244;54.326;10.074;2023-05-07T14:09:23;18.20;99.90
2465;DHT22;1244;54.326;10.074;2023-05-07T14:11:48;18.00;99.90
2465;DHT22;1244;54.326;10.074;2023-05-07T14:14:17;18.30;99.90
2465;DHT22;1244;54.326;10.074;2023-05-07T14:16:42;18.30;99.90
2465;DHT22;1244;54.326;10.074;2023-05-07T14:19:08;18.10;99.90
2465;DHT22;1244;54.326;10.074;2023-05-07T14:21:33;18.20;99.90
2465;DHT22;1244;54.326;10.074;2023-05-07T14:23:59;17.80;99.90
2465;DHT22;1244;54.326;10.074;2023-05-07T14:26:25;17.50;99.90
2465;DHT22;1244;54.326;10.074;2023-05-07T14:28:52;17.40;99.90
2465;DHT22;1244;54.326;10.074;2023-05-07T14:31:20;17.80;99.90
2465;DHT22;1244;54.326;10.074;2023-05-07T14:33:46;18.10;99.90
2465;DHT22;1244;54.326;10.074;2023-05-07T14:36:12;18.20;99.90
2465;DHT22;1244;54.326;10.074;2023-05-07T14:38:37;17.70;99.90
2465;DHT22;1244;54.326;10.074;2023-05-07T14:41:03;17.40;99.90
2465;DHT22;1244;54.326;10.074;2023-05-07T14:43:29;18.00;99.90
2465;DHT22;1244;54.326;10.074;2023-05-07T14:45:54;17.80;99.90
2465;DHT22;1244;54.326;10.074;2023-05-07T14:48:20;18.40;99.90
2465;DHT22;1244;54.326;10.074;2023-05-07T14:50:47;18.20;99.90
2465;DHT22;1244;54.326;10.074;2023-05-07T14:53:13;17.70;99.90
2465;DHT22;1244;54.326;10.074;2023-05-07T14:55:39;18.20;99.90
2465;DHT22;1244;54.326;10.074;2023-05-07T14:58:04;18.40;99.90
2465;DHT22;1244;54.326;10.074;2023-05-07T15:00:30;18.30;99.90
2465;DHT22;1244;54.326;10.074;2023-05-07T15:03:09;17.90;99.90
2465;DHT22;1244;54.326;10.074;2023-05-07T15:05:35;18.40;99.90
2465;DHT22;1244;54.326;10.074;2023-05-07T15:08:01;18.60;99.90
2465;DHT22;1244;54.326;10.074;2023-05-07T15:10:27;18.30;99.90
2465;DHT22;1244;54.326;10.074;2023-05-07T15:12:52;18.30;99.90
2465;DHT22;1244;54.326;10.074;2023-05-07T15:15:18;18.20;99.90
2465;DHT22;1244;54.326;10.074;2023-05-07T15:17:43;18.10;99.90
2465;DHT22;1244;54.326;10.074;2023-05-07T15:20:09;17.60;99.90
2465;DHT22;1244;54.326;10.074;2023-05-07T15:22:36;17.30;99.90
2465;DHT22;1244;54.326;10.074;2023-05-07T15:25:03;17.20;99.90
2465;DHT22;1244;54.326;10.074;2023-05-07T15:27:29;17.40;99.90
2465;DHT22;1244;54.326;10.074;2023-05-07T15:29:56;17.40;99.90
2465;DHT22;1244;54.326;10.074;2023-05-07T15:32:22;17.60;99.90
2465;DHT22;1244;54.326;10.074;2023-05-07T15:34:47;17.40;99.90
2465;DHT22;1244;54.326;10.074;2023-05-07T15:37:13;17.50;99.90
2465;DHT22;1244;54.326;10.074;2023-05-07T15:39:38;17.20;99.90
2465;DHT22;1244;54.326;10.074;2023-05-07T15:42:04;16.90;99.90
2465;DHT22;1244;54.326;10.074;2023-05-07T15:44:30;16.80;99.90
2465;DHT22;1244;54.326;10.074;2023-05-07T15:46:58;16.70;99.90
2465;DHT22;1244;54.326;10.074;2023-05-07T15:49:24;16.80;99.90
2465;DHT22;1244;54.326;10.074;2023-05-07T15:51:50;16.90;99.90
2465;DHT22;1244;54.326;10.074;2023-05-07T15:54:16;17.00;99.90
2465;DHT22;1244;54.326;10.074;2023-05-07T15:56:45;17.00;99.90
2465;DHT22;1244;54.326;10.074;2023-05-07T15:59:11;17.00;99.90
2465;DHT22;1244;54.326;10.074;2023-05-07T16:01:37;17.00;99.90
2465;DHT22;1244;54.326;10.074;2023-05-07T16:04:04;16.90;99.90